Forside
METAR-TAF:

METAR-TAF

Lufthavne :

Vamdrup

Kolding, Danmark

Breddekreds: 55-26N, længdekreds: 009-20E, højde: 44 m

Aktuelle vejr

Denne rapport blev lavet for 40 minutter siden, kl. 08:50 UTC
Vind 8 kt fra sydøst
Temperatur 7°C
Fugtighed 93%
Tryk 1004 hPa
Sigt: 2000 m
dis,

METAR: EKVD 020850Z 14008KT 2000 BR VV007 07/06 Q1004

Tid: 10:30 (09:30 UTC)

Vejrudsigter

Denne rapport blev lavet for 19 minutter siden, kl. 09:11 UTC
Foreløbig gælder fra 02 på 09 UTC til 02 på 16 UTC
Vind 8 kt fra østsydøst
Sigt: 2000 m
Overskyet i en højde af 600 ft
dis
ændring
fra 02 på 09 UTC til 02 på 11 UTC
Sigt 10 km eller mere
Nogle få skyer i en højde af 600 ft
Midlertidig
fra 02 på 11 UTC til 02 på 12 UTC
Sigt: 4000 m
Brudte skyer i en højde af 800 ft
dis, let regn, finregn,

TAF: EKVD 020911Z 0209/0216 12008KT 2000 BR OVC006 BECMG 0209/0211 9999 NSW FEW006 TEMPO 0211/0212 4000 BR -RADZ BKN008

Vejrobservationer og prognoser fra mere end 4000 lufthavne (METAR og TAF).

De gule og røde prikker repræsenterer de meteorologiske stationer.

Flyt musen over at se navnet på stationen.

Så klik over at se vejr observationer og prognoser.

At skifte det kort: Klik på de grønne knapper med et sort kors for at zoome ind; på den grønne knap med en bindestreg for at zoome ud; eller på de grønne pile for tilstødende kort.


METAR-TAF: